sensor_id;sensor_type;location;lat;lon;timestamp;P1;durP1;ratioP1;P2;durP2;ratioP2
84923;SDS011;75286;52.218;5.180;2024-03-06T00:00:04;45.28;;;28.90;;
84923;SDS011;75286;52.218;5.180;2024-03-06T00:02:33;45.38;;;29.50;;
84923;SDS011;75286;52.218;5.180;2024-03-06T00:05:00;47.75;;;30.60;;
84923;SDS011;75286;52.218;5.180;2024-03-06T00:07:25;44.60;;;29.52;;
84923;SDS011;75286;52.218;5.180;2024-03-06T00:09:53;43.65;;;30.17;;
84923;SDS011;75286;52.218;5.180;2024-03-06T00:12:19;45.92;;;29.50;;
84923;SDS011;75286;52.218;5.180;2024-03-06T00:14:44;46.00;;;29.88;;
84923;SDS011;75286;52.218;5.180;2024-03-06T00:17:10;42.90;;;28.85;;
84923;SDS011;75286;52.218;5.180;2024-03-06T00:19:35;43.67;;;29.30;;
84923;SDS011;75286;52.218;5.180;2024-03-06T00:22:01;41.08;;;28.02;;
84923;SDS011;75286;52.218;5.180;2024-03-06T00:24:27;43.28;;;28.98;;
84923;SDS011;75286;52.218;5.180;2024-03-06T00:26:53;42.50;;;30.35;;
84923;SDS011;75286;52.218;5.180;2024-03-06T00:29:18;44.28;;;28.58;;
84923;SDS011;75286;52.218;5.180;2024-03-06T00:31:44;40.65;;;29.38;;
84923;SDS011;75286;52.218;5.180;2024-03-06T00:34:11;38.28;;;26.40;;
84923;SDS011;75286;52.218;5.180;2024-03-06T00:36:42;44.25;;;28.60;;
84923;SDS011;75286;52.218;5.180;2024-03-06T00:39:08;42.55;;;28.88;;
84923;SDS011;75286;52.218;5.180;2024-03-06T00:41:34;43.05;;;28.27;;
84923;SDS011;75286;52.218;5.180;2024-03-06T00:44:00;41.28;;;27.90;;
84923;SDS011;75286;52.218;5.180;2024-03-06T00:46:25;41.58;;;28.05;;
84923;SDS011;75286;52.218;5.180;2024-03-06T00:48:51;43.63;;;27.85;;
84923;SDS011;75286;52.218;5.180;2024-03-06T00:51:16;40.60;;;27.38;;
84923;SDS011;75286;52.218;5.180;2024-03-06T00:53:42;42.65;;;28.98;;
84923;SDS011;75286;52.218;5.180;2024-03-06T00:56:08;40.20;;;26.50;;
84923;SDS011;75286;52.218;5.180;2024-03-06T00:58:33;38.03;;;27.00;;
84923;SDS011;75286;52.218;5.180;2024-03-06T01:00:58;38.78;;;26.95;;
84923;SDS011;75286;52.218;5.180;2024-03-06T01:03:24;40.53;;;26.48;;
84923;SDS011;75286;52.218;5.180;2024-03-06T01:05:50;38.25;;;26.75;;
84923;SDS011;75286;52.218;5.180;2024-03-06T01:08:17;38.92;;;27.73;;
84923;SDS011;75286;52.218;5.180;2024-03-06T01:10:43;40.70;;;28.35;;
84923;SDS011;75286;52.218;5.180;2024-03-06T01:13:08;39.35;;;26.73;;
84923;SDS011;75286;52.218;5.180;2024-03-06T01:15:36;34.05;;;25.60;;
84923;SDS011;75286;52.218;5.180;2024-03-06T01:18:01;41.15;;;26.30;;
84923;SDS011;75286;52.218;5.180;2024-03-06T01:20:28;37.28;;;26.27;;
84923;SDS011;75286;52.218;5.180;2024-03-06T01:22:53;39.60;;;26.88;;
84923;SDS011;75286;52.218;5.180;2024-03-06T01:25:19;41.03;;;26.55;;
84923;SDS011;75286;52.218;5.180;2024-03-06T01:27:44;39.88;;;26.08;;
84923;SDS011;75286;52.218;5.180;2024-03-06T01:30:09;34.78;;;24.98;;
84923;SDS011;75286;52.218;5.180;2024-03-06T01:32:35;33.08;;;24.45;;
84923;SDS011;75286;52.218;5.180;2024-03-06T01:35:00;36.58;;;24.88;;
84923;SDS011;75286;52.218;5.180;2024-03-06T01:37:26;35.30;;;25.17;;
84923;SDS011;75286;52.218;5.180;2024-03-06T01:39:51;34.65;;;25.92;;
84923;SDS011;75286;52.218;5.180;2024-03-06T01:42:17;32.35;;;24.30;;
84923;SDS011;75286;52.218;5.180;2024-03-06T01:44:45;35.20;;;24.02;;
84923;SDS011;75286;52.218;5.180;2024-03-06T01:47:11;35.67;;;24.52;;
84923;SDS011;75286;52.218;5.180;2024-03-06T01:49:36;34.30;;;25.88;;
84923;SDS011;75286;52.218;5.180;2024-03-06T01:52:02;32.58;;;24.92;;
84923;SDS011;75286;52.218;5.180;2024-03-06T01:54:28;31.77;;;24.73;;
84923;SDS011;75286;52.218;5.180;2024-03-06T01:56:56;36.08;;;24.92;;
84923;SDS011;75286;52.218;5.180;2024-03-06T01:59:25;35.58;;;25.13;;
84923;SDS011;75286;52.218;5.180;2024-03-06T02:01:54;33.95;;;24.90;;
84923;SDS011;75286;52.218;5.180;2024-03-06T02:04:20;37.65;;;25.35;;
84923;SDS011;75286;52.218;5.180;2024-03-06T02:06:45;38.83;;;26.48;;
84923;SDS011;75286;52.218;5.180;2024-03-06T02:09:11;35.13;;;25.98;;
84923;SDS011;75286;52.218;5.180;2024-03-06T02:11:40;35.90;;;25.25;;
84923;SDS011;75286;52.218;5.180;2024-03-06T02:14:06;36.75;;;25.30;;
84923;SDS011;75286;52.218;5.180;2024-03-06T02:16:35;37.70;;;26.25;;
84923;SDS011;75286;52.218;5.180;2024-03-06T02:19:04;39.25;;;27.17;;
84923;SDS011;75286;52.218;5.180;2024-03-06T02:21:29;36.63;;;26.27;;
84923;SDS011;75286;52.218;5.180;2024-03-06T02:23:55;38.72;;;26.67;;
84923;SDS011;75286;52.218;5.180;2024-03-06T02:26:21;36.80;;;26.05;;
84923;SDS011;75286;52.218;5.180;2024-03-06T02:28:47;37.83;;;26.35;;
84923;SDS011;75286;52.218;5.180;2024-03-06T02:31:13;36.33;;;25.05;;
84923;SDS011;75286;52.218;5.180;2024-03-06T02:33:38;40.08;;;28.27;;
84923;SDS011;75286;52.218;5.180;2024-03-06T02:36:04;35.92;;;26.60;;
84923;SDS011;75286;52.218;5.180;2024-03-06T02:38:30;37.75;;;27.45;;
84923;SDS011;75286;52.218;5.180;2024-03-06T02:40:56;34.72;;;25.80;;
84923;SDS011;75286;52.218;5.180;2024-03-06T02:43:21;35.97;;;27.17;;
84923;SDS011;75286;52.218;5.180;2024-03-06T02:45:46;40.33;;;27.63;;
84923;SDS011;75286;52.218;5.180;2024-03-06T02:48:12;37.15;;;26.02;;
84923;SDS011;75286;52.218;5.180;2024-03-06T02:50:37;38.08;;;26.63;;
84923;SDS011;75286;52.218;5.180;2024-03-06T02:53:03;39.80;;;28.10;;
84923;SDS011;75286;52.218;5.180;2024-03-06T02:55:28;37.50;;;28.17;;
84923;SDS011;75286;52.218;5.180;2024-03-06T02:57:53;41.67;;;29.15;;
84923;SDS011;75286;52.218;5.180;2024-03-06T03:00:19;40.13;;;28.35;;
84923;SDS011;75286;52.218;5.180;2024-03-06T03:02:44;42.72;;;28.80;;
84923;SDS011;75286;52.218;5.180;2024-03-06T03:05:10;39.17;;;28.63;;
84923;SDS011;75286;52.218;5.180;2024-03-06T03:07:35;38.42;;;28.08;;
84923;SDS011;75286;52.218;5.180;2024-03-06T03:10:00;38.67;;;29.13;;
84923;SDS011;75286;52.218;5.180;2024-03-06T03:12:26;39.60;;;27.65;;
84923;SDS011;75286;52.218;5.180;2024-03-06T03:14:51;41.20;;;28.88;;
84923;SDS011;75286;52.218;5.180;2024-03-06T03:17:18;41.08;;;28.42;;
84923;SDS011;75286;52.218;5.180;2024-03-06T03:19:44;40.13;;;29.95;;
84923;SDS011;75286;52.218;5.180;2024-03-06T03:22:10;40.05;;;29.10;;
84923;SDS011;75286;52.218;5.180;2024-03-06T03:24:35;36.90;;;28.65;;
84923;SDS011;75286;52.218;5.180;2024-03-06T03:27:02;44.58;;;29.55;;
84923;SDS011;75286;52.218;5.180;2024-03-06T03:29:27;43.15;;;29.35;;
84923;SDS011;75286;52.218;5.180;2024-03-06T03:31:53;41.30;;;28.65;;
84923;SDS011;75286;52.218;5.180;2024-03-06T03:34:18;43.08;;;30.90;;
84923;SDS011;75286;52.218;5.180;2024-03-06T03:36:46;46.75;;;30.83;;
84923;SDS011;75286;52.218;5.180;2024-03-06T03:39:11;42.70;;;27.65;;
84923;SDS011;75286;52.218;5.180;2024-03-06T03:41:47;41.80;;;28.10;;
84923;SDS011;75286;52.218;5.180;2024-03-06T03:46:39;46.25;;;31.38;;
84923;SDS011;75286;52.218;5.180;2024-03-06T03:49:05;39.00;;;29.17;;
84923;SDS011;75286;52.218;5.180;2024-03-06T03:51:30;38.00;;;27.65;;
84923;SDS011;75286;52.218;5.180;2024-03-06T03:53:56;44.80;;;30.42;;
84923;SDS011;75286;52.218;5.180;2024-03-06T03:56:21;42.38;;;29.50;;
84923;SDS011;75286;52.218;5.180;2024-03-06T03:58:47;41.38;;;29.90;;
84923;SDS011;75286;52.218;5.180;2024-03-06T04:01:12;40.47;;;28.88;;
84923;SDS011;75286;52.218;5.180;2024-03-06T04:03:38;40.45;;;27.85;;
84923;SDS011;75286;52.218;5.180;2024-03-06T04:06:03;43.97;;;30.10;;
84923;SDS011;75286;52.218;5.180;2024-03-06T04:08:29;42.90;;;29.58;;
84923;SDS011;75286;52.218;5.180;2024-03-06T04:10:54;41.80;;;28.70;;
84923;SDS011;75286;52.218;5.180;2024-03-06T04:13:20;40.65;;;28.17;;
84923;SDS011;75286;52.218;5.180;2024-03-06T04:15:46;44.92;;;30.13;;
84923;SDS011;75286;52.218;5.180;2024-03-06T04:18:11;41.25;;;28.15;;
84923;SDS011;75286;52.218;5.180;2024-03-06T04:20:37;42.50;;;29.10;;
84923;SDS011;75286;52.218;5.180;2024-03-06T04:23:02;40.28;;;28.65;;
84923;SDS011;75286;52.218;5.180;2024-03-06T04:25:28;37.67;;;28.38;;
84923;SDS011;75286;52.218;5.180;2024-03-06T04:27:54;41.22;;;28.25;;
84923;SDS011;75286;52.218;5.180;2024-03-06T04:30:19;41.30;;;29.20;;
84923;SDS011;75286;52.218;5.180;2024-03-06T04:32:45;41.00;;;28.00;;
84923;SDS011;75286;52.218;5.180;2024-03-06T04:35:10;40.42;;;28.25;;
84923;SDS011;75286;52.218;5.180;2024-03-06T04:37:36;38.83;;;28.13;;
84923;SDS011;75286;52.218;5.180;2024-03-06T04:40:02;43.47;;;29.15;;
84923;SDS011;75286;52.218;5.180;2024-03-06T04:42:33;43.15;;;30.50;;
84923;SDS011;75286;52.218;5.180;2024-03-06T04:45:01;42.95;;;30.45;;
84923;SDS011;75286;52.218;5.180;2024-03-06T04:47:28;40.13;;;28.00;;
84923;SDS011;75286;52.218;5.180;2024-03-06T04:49:53;42.20;;;30.85;;
84923;SDS011;75286;52.218;5.180;2024-03-06T04:52:19;45.03;;;31.35;;
84923;SDS011;75286;52.218;5.180;2024-03-06T04:54:45;43.22;;;30.70;;
84923;SDS011;75286;52.218;5.180;2024-03-06T04:57:10;44.05;;;30.23;;
84923;SDS011;75286;52.218;5.180;2024-03-06T04:59:35;41.67;;;29.50;;
84923;SDS011;75286;52.218;5.180;2024-03-06T05:02:01;37.08;;;30.13;;
84923;SDS011;75286;52.218;5.180;2024-03-06T05:04:28;43.90;;;29.27;;
84923;SDS011;75286;52.218;5.180;2024-03-06T05:06:54;40.63;;;28.88;;
84923;SDS011;75286;52.218;5.180;2024-03-06T05:09:19;42.17;;;29.63;;
84923;SDS011;75286;52.218;5.180;2024-03-06T05:11:44;48.72;;;29.15;;
84923;SDS011;75286;52.218;5.180;2024-03-06T05:14:10;45.67;;;30.98;;
84923;SDS011;75286;52.218;5.180;2024-03-06T05:16:35;44.60;;;30.27;;
84923;SDS011;75286;52.218;5.180;2024-03-06T05:19:00;42.25;;;30.35;;
84923;SDS011;75286;52.218;5.180;2024-03-06T05:21:26;44.42;;;30.25;;
84923;SDS011;75286;52.218;5.180;2024-03-06T05:23:52;45.97;;;30.52;;
84923;SDS011;75286;52.218;5.180;2024-03-06T05:26:17;43.40;;;30.27;;
84923;SDS011;75286;52.218;5.180;2024-03-06T05:28:43;39.83;;;27.98;;
84923;SDS011;75286;52.218;5.180;2024-03-06T05:31:18;42.03;;;29.38;;
84923;SDS011;75286;52.218;5.180;2024-03-06T05:33:49;38.55;;;28.38;;
84923;SDS011;75286;52.218;5.180;2024-03-06T05:36:14;40.70;;;28.27;;
84923;SDS011;75286;52.218;5.180;2024-03-06T05:38:46;41.85;;;30.05;;
84923;SDS011;75286;52.218;5.180;2024-03-06T05:41:12;37.38;;;27.50;;
84923;SDS011;75286;52.218;5.180;2024-03-06T05:46:42;40.83;;;29.10;;
84923;SDS011;75286;52.218;5.180;2024-03-06T05:52:09;38.92;;;26.40;;
84923;SDS011;75286;52.218;5.180;2024-03-06T05:54:34;41.72;;;28.95;;
84923;SDS011;75286;52.218;5.180;2024-03-06T05:57:00;39.75;;;26.42;;
84923;SDS011;75286;52.218;5.180;2024-03-06T05:59:26;39.42;;;27.67;;
84923;SDS011;75286;52.218;5.180;2024-03-06T06:01:51;42.40;;;28.50;;
84923;SDS011;75286;52.218;5.180;2024-03-06T06:04:17;37.75;;;26.45;;
84923;SDS011;75286;52.218;5.180;2024-03-06T06:06:42;39.38;;;26.92;;
84923;SDS011;75286;52.218;5.180;2024-03-06T06:09:08;37.22;;;26.85;;
84923;SDS011;75286;52.218;5.180;2024-03-06T06:11:40;37.05;;;25.75;;
84923;SDS011;75286;52.218;5.180;2024-03-06T06:14:09;39.13;;;26.70;;
84923;SDS011;75286;52.218;5.180;2024-03-06T06:16:36;41.92;;;28.25;;
84923;SDS011;75286;52.218;5.180;2024-03-06T06:19:02;37.90;;;28.35;;
84923;SDS011;75286;52.218;5.180;2024-03-06T06:21:30;40.50;;;27.60;;
84923;SDS011;75286;52.218;5.180;2024-03-06T06:23:55;35.22;;;27.23;;
84923;SDS011;75286;52.218;5.180;2024-03-06T06:26:21;38.05;;;28.48;;
84923;SDS011;75286;52.218;5.180;2024-03-06T06:28:46;37.55;;;27.20;;
84923;SDS011;75286;52.218;5.180;2024-03-06T06:31:12;38.38;;;27.88;;
84923;SDS011;75286;52.218;5.180;2024-03-06T06:33:37;41.47;;;28.40;;
84923;SDS011;75286;52.218;5.180;2024-03-06T06:36:03;39.72;;;28.60;;
84923;SDS011;75286;52.218;5.180;2024-03-06T06:38:28;41.00;;;28.13;;
84923;SDS011;75286;52.218;5.180;2024-03-06T06:40:55;41.08;;;27.77;;
84923;SDS011;75286;52.218;5.180;2024-03-06T06:43:21;39.55;;;27.92;;
84923;SDS011;75286;52.218;5.180;2024-03-06T06:45:46;45.45;;;28.80;;
84923;SDS011;75286;52.218;5.180;2024-03-06T06:48:12;42.25;;;29.20;;
84923;SDS011;75286;52.218;5.180;2024-03-06T06:50:37;41.97;;;28.48;;
84923;SDS011;75286;52.218;5.180;2024-03-06T06:53:03;38.20;;;28.00;;
84923;SDS011;75286;52.218;5.180;2024-03-06T06:55:29;42.80;;;29.85;;
84923;SDS011;75286;52.218;5.180;2024-03-06T06:57:55;40.92;;;29.63;;
84923;SDS011;75286;52.218;5.180;2024-03-06T07:00:20;40.60;;;29.42;;
84923;SDS011;75286;52.218;5.180;2024-03-06T07:02:47;39.28;;;28.00;;
84923;SDS011;75286;52.218;5.180;2024-03-06T07:05:14;42.97;;;28.83;;
84923;SDS011;75286;52.218;5.180;2024-03-06T07:07:40;44.35;;;31.13;;
84923;SDS011;75286;52.218;5.180;2024-03-06T07:10:06;39.05;;;28.63;;
84923;SDS011;75286;52.218;5.180;2024-03-06T07:12:32;38.83;;;29.35;;
84923;SDS011;75286;52.218;5.180;2024-03-06T07:14:58;46.22;;;31.20;;
84923;SDS011;75286;52.218;5.180;2024-03-06T07:17:24;50.08;;;32.28;;
84923;SDS011;75286;52.218;5.180;2024-03-06T07:19:50;47.78;;;33.38;;
84923;SDS011;75286;52.218;5.180;2024-03-06T07:22:16;50.38;;;33.63;;
84923;SDS011;75286;52.218;5.180;2024-03-06T07:24:41;47.08;;;30.92;;
84923;SDS011;75286;52.218;5.180;2024-03-06T07:27:07;50.65;;;32.15;;
84923;SDS011;75286;52.218;5.180;2024-03-06T07:29:34;49.55;;;30.08;;
84923;SDS011;75286;52.218;5.180;2024-03-06T07:32:00;56.58;;;32.92;;
84923;SDS011;75286;52.218;5.180;2024-03-06T07:34:26;54.58;;;33.35;;
84923;SDS011;75286;52.218;5.180;2024-03-06T07:36:52;45.00;;;30.98;;
84923;SDS011;75286;52.218;5.180;2024-03-06T07:39:19;46.50;;;30.85;;
84923;SDS011;75286;52.218;5.180;2024-03-06T07:41:49;45.40;;;30.77;;
84923;SDS011;75286;52.218;5.180;2024-03-06T07:44:14;47.60;;;29.60;;
84923;SDS011;75286;52.218;5.180;2024-03-06T07:46:40;48.00;;;28.98;;
84923;SDS011;75286;52.218;5.180;2024-03-06T07:49:05;45.35;;;31.05;;
84923;SDS011;75286;52.218;5.180;2024-03-06T07:51:38;42.58;;;30.27;;
84923;SDS011;75286;52.218;5.180;2024-03-06T07:54:06;50.13;;;32.30;;
84923;SDS011;75286;52.218;5.180;2024-03-06T07:56:31;44.05;;;31.83;;
84923;SDS011;75286;52.218;5.180;2024-03-06T07:58:57;43.38;;;30.40;;
84923;SDS011;75286;52.218;5.180;2024-03-06T08:01:22;44.55;;;31.60;;
84923;SDS011;75286;52.218;5.180;2024-03-06T08:03:48;40.78;;;28.50;;
84923;SDS011;75286;52.218;5.180;2024-03-06T08:06:15;49.65;;;30.13;;
84923;SDS011;75286;52.218;5.180;2024-03-06T08:08:43;40.50;;;27.48;;
84923;SDS011;75286;52.218;5.180;2024-03-06T08:11:12;42.47;;;29.90;;
84923;SDS011;75286;52.218;5.180;2024-03-06T08:13:43;45.80;;;30.33;;
84923;SDS011;75286;52.218;5.180;2024-03-06T08:16:08;44.08;;;31.17;;
84923;SDS011;75286;52.218;5.180;2024-03-06T08:18:34;45.25;;;28.85;;
84923;SDS011;75286;52.218;5.180;2024-03-06T08:21:04;50.13;;;31.67;;
84923;SDS011;75286;52.218;5.180;2024-03-06T08:26:42;42.17;;;28.15;;
84923;SDS011;75286;52.218;5.180;2024-03-06T08:29:09;42.17;;;29.10;;
84923;SDS011;75286;52.218;5.180;2024-03-06T08:31:51;44.63;;;30.25;;
84923;SDS011;75286;52.218;5.180;2024-03-06T08:34:16;39.55;;;26.83;;
84923;SDS011;75286;52.218;5.180;2024-03-06T08:36:42;50.97;;;33.55;;
84923;SDS011;75286;52.218;5.180;2024-03-06T08:39:07;49.95;;;34.22;;
84923;SDS011;75286;52.218;5.180;2024-03-06T08:41:37;43.67;;;29.15;;
84923;SDS011;75286;52.218;5.180;2024-03-06T08:44:03;40.67;;;28.60;;
84923;SDS011;75286;52.218;5.180;2024-03-06T08:46:28;48.95;;;34.15;;
84923;SDS011;75286;52.218;5.180;2024-03-06T08:48:54;47.95;;;32.33;;
84923;SDS011;75286;52.218;5.180;2024-03-06T08:51:21;46.53;;;34.17;;
84923;SDS011;75286;52.218;5.180;2024-03-06T08:53:47;49.65;;;32.45;;
84923;SDS011;75286;52.218;5.180;2024-03-06T08:56:13;46.70;;;32.53;;
84923;SDS011;75286;52.218;5.180;2024-03-06T08:58:40;48.10;;;32.15;;
84923;SDS011;75286;52.218;5.180;2024-03-06T09:01:05;50.53;;;33.95;;
84923;SDS011;75286;52.218;5.180;2024-03-06T09:03:31;47.97;;;31.52;;
84923;SDS011;75286;52.218;5.180;2024-03-06T09:05:56;45.83;;;32.08;;
84923;SDS011;75286;52.218;5.180;2024-03-06T09:08:22;47.75;;;32.60;;
84923;SDS011;75286;52.218;5.180;2024-03-06T09:10:47;42.25;;;29.15;;
84923;SDS011;75286;52.218;5.180;2024-03-06T09:13:14;46.80;;;34.30;;
84923;SDS011;75286;52.218;5.180;2024-03-06T09:15:39;44.97;;;32.65;;
84923;SDS011;75286;52.218;5.180;2024-03-06T09:18:05;48.75;;;32.35;;
84923;SDS011;75286;52.218;5.180;2024-03-06T09:20:31;43.03;;;30.05;;
84923;SDS011;75286;52.218;5.180;2024-03-06T09:22:56;38.80;;;27.48;;
84923;SDS011;75286;52.218;5.180;2024-03-06T09:25:23;45.38;;;30.23;;
84923;SDS011;75286;52.218;5.180;2024-03-06T09:27:48;43.33;;;30.13;;
84923;SDS011;75286;52.218;5.180;2024-03-06T09:30:14;41.78;;;29.52;;
84923;SDS011;75286;52.218;5.180;2024-03-06T09:32:40;46.63;;;31.17;;
84923;SDS011;75286;52.218;5.180;2024-03-06T09:35:07;42.05;;;28.70;;
84923;SDS011;75286;52.218;5.180;2024-03-06T09:37:32;38.42;;;27.10;;
84923;SDS011;75286;52.218;5.180;2024-03-06T09:39:58;43.75;;;32.13;;
84923;SDS011;75286;52.218;5.180;2024-03-06T09:42:23;39.92;;;28.50;;
84923;SDS011;75286;52.218;5.180;2024-03-06T09:44:49;38.67;;;27.67;;
84923;SDS011;75286;52.218;5.180;2024-03-06T09:47:14;38.92;;;26.55;;
84923;SDS011;75286;52.218;5.180;2024-03-06T09:49:48;36.55;;;23.35;;
84923;SDS011;75286;52.218;5.180;2024-03-06T09:52:15;38.13;;;26.88;;
84923;SDS011;75286;52.218;5.180;2024-03-06T09:54:40;36.55;;;26.58;;
84923;SDS011;75286;52.218;5.180;2024-03-06T09:57:06;32.13;;;23.67;;
84923;SDS011;75286;52.218;5.180;2024-03-06T09:59:32;35.13;;;24.55;;
84923;SDS011;75286;52.218;5.180;2024-03-06T10:01:58;35.25;;;23.58;;
84923;SDS011;75286;52.218;5.180;2024-03-06T10:04:27;34.38;;;23.85;;
84923;SDS011;75286;52.218;5.180;2024-03-06T10:06:57;32.38;;;23.63;;
84923;SDS011;75286;52.218;5.180;2024-03-06T10:09:23;34.28;;;23.92;;
84923;SDS011;75286;52.218;5.180;2024-03-06T10:11:52;34.08;;;24.10;;
84923;SDS011;75286;52.218;5.180;2024-03-06T10:14:19;33.40;;;23.50;;
84923;SDS011;75286;52.218;5.180;2024-03-06T10:16:57;32.42;;;22.95;;
84923;SDS011;75286;52.218;5.180;2024-03-06T10:19:26;33.55;;;24.30;;
84923;SDS011;75286;52.218;5.180;2024-03-06T10:21:52;36.28;;;25.60;;
84923;SDS011;75286;52.218;5.180;2024-03-06T10:24:19;36.28;;;25.65;;
84923;SDS011;75286;52.218;5.180;2024-03-06T10:26:51;33.65;;;24.00;;
84923;SDS011;75286;52.218;5.180;2024-03-06T10:29:21;36.65;;;23.75;;
84923;SDS011;75286;52.218;5.180;2024-03-06T10:31:51;32.95;;;21.83;;
84923;SDS011;75286;52.218;5.180;2024-03-06T10:34:17;27.48;;;20.38;;
84923;SDS011;75286;52.218;5.180;2024-03-06T10:36:43;32.95;;;22.00;;
84923;SDS011;75286;52.218;5.180;2024-03-06T10:39:10;30.73;;;21.58;;
84923;SDS011;75286;52.218;5.180;2024-03-06T10:41:40;27.73;;;21.15;;
84923;SDS011;75286;52.218;5.180;2024-03-06T10:44:13;31.20;;;20.73;;
84923;SDS011;75286;52.218;5.180;2024-03-06T10:49:10;28.02;;;19.05;;
84923;SDS011;75286;52.218;5.180;2024-03-06T10:51:37;22.83;;;17.25;;
84923;SDS011;75286;52.218;5.180;2024-03-06T10:54:07;29.10;;;21.02;;
84923;SDS011;75286;52.218;5.180;2024-03-06T10:56:34;26.77;;;20.02;;
84923;SDS011;75286;52.218;5.180;2024-03-06T10:58:59;24.70;;;17.70;;
84923;SDS011;75286;52.218;5.180;2024-03-06T11:01:26;24.05;;;17.02;;
84923;SDS011;75286;52.218;5.180;2024-03-06T11:03:57;23.65;;;17.35;;
84923;SDS011;75286;52.218;5.180;2024-03-06T11:06:25;23.73;;;17.48;;
84923;SDS011;75286;52.218;5.180;2024-03-06T11:08:51;24.77;;;17.38;;
84923;SDS011;75286;52.218;5.180;2024-03-06T11:11:23;22.15;;;16.60;;
84923;SDS011;75286;52.218;5.180;2024-03-06T11:13:55;21.92;;;16.00;;
84923;SDS011;75286;52.218;5.180;2024-03-06T11:16:28;22.02;;;16.48;;
84923;SDS011;75286;52.218;5.180;2024-03-06T11:19:08;25.13;;;17.63;;
84923;SDS011;75286;52.218;5.180;2024-03-06T11:21:34;20.42;;;14.80;;
84923;SDS011;75286;52.218;5.180;2024-03-06T11:24:16;19.08;;;14.65;;
84923;SDS011;75286;52.218;5.180;2024-03-06T11:26:47;18.05;;;11.20;;
84923;SDS011;75286;52.218;5.180;2024-03-06T11:29:27;16.02;;;11.02;;
84923;SDS011;75286;52.218;5.180;2024-03-06T11:32:00;14.40;;;9.70;;
84923;SDS011;75286;52.218;5.180;2024-03-06T11:34:33;16.23;;;9.73;;
84923;SDS011;75286;52.218;5.180;2024-03-06T11:36:59;15.45;;;10.68;;
84923;SDS011;75286;52.218;5.180;2024-03-06T11:39:32;17.58;;;10.63;;
84923;SDS011;75286;52.218;5.180;2024-03-06T11:41:59;17.08;;;9.88;;
84923;SDS011;75286;52.218;5.180;2024-03-06T11:44:26;23.10;;;17.85;;
84923;SDS011;75286;52.218;5.180;2024-03-06T11:49:29;22.67;;;16.15;;
84923;SDS011;75286;52.218;5.180;2024-03-06T11:52:00;20.42;;;12.88;;
84923;SDS011;75286;52.218;5.180;2024-03-06T11:54:27;14.63;;;8.65;;
84923;SDS011;75286;52.218;5.180;2024-03-06T11:57:03;13.02;;;8.88;;
84923;SDS011;75286;52.218;5.180;2024-03-06T11:59:31;13.32;;;7.70;;
84923;SDS011;75286;52.218;5.180;2024-03-06T12:01:58;15.18;;;8.57;;
84923;SDS011;75286;52.218;5.180;2024-03-06T12:04:26;12.43;;;8.25;;
84923;SDS011;75286;52.218;5.180;2024-03-06T12:06:52;13.70;;;7.25;;
84923;SDS011;75286;52.218;5.180;2024-03-06T12:09:25;14.43;;;9.52;;
84923;SDS011;75286;52.218;5.180;2024-03-06T12:11:50;16.88;;;10.95;;
84923;SDS011;75286;52.218;5.180;2024-03-06T12:14:19;17.98;;;10.80;;
84923;SDS011;75286;52.218;5.180;2024-03-06T12:16:56;18.33;;;11.00;;
84923;SDS011;75286;52.218;5.180;2024-03-06T12:19:22;15.55;;;10.32;;
84923;SDS011;75286;52.218;5.180;2024-03-06T12:21:48;15.90;;;9.32;;
84923;SDS011;75286;52.218;5.180;2024-03-06T12:24:15;13.10;;;8.02;;
84923;SDS011;75286;52.218;5.180;2024-03-06T12:26:41;12.60;;;7.93;;
84923;SDS011;75286;52.218;5.180;2024-03-06T12:29:07;14.32;;;8.55;;
84923;SDS011;75286;52.218;5.180;2024-03-06T12:31:34;14.75;;;10.00;;
84923;SDS011;75286;52.218;5.180;2024-03-06T12:34:01;14.15;;;10.20;;
84923;SDS011;75286;52.218;5.180;2024-03-06T12:36:28;17.13;;;9.95;;
84923;SDS011;75286;52.218;5.180;2024-03-06T12:39:04;18.92;;;11.23;;
84923;SDS011;75286;52.218;5.180;2024-03-06T12:41:38;17.83;;;10.68;;
84923;SDS011;75286;52.218;5.180;2024-03-06T12:44:06;14.88;;;11.18;;
84923;SDS011;75286;52.218;5.180;2024-03-06T12:46:34;17.63;;;11.88;;
84923;SDS011;75286;52.218;5.180;2024-03-06T12:49:00;14.02;;;9.68;;
84923;SDS011;75286;52.218;5.180;2024-03-06T12:51:26;18.63;;;10.68;;
84923;SDS011;75286;52.218;5.180;2024-03-06T12:53:51;15.82;;;10.77;;
84923;SDS011;75286;52.218;5.180;2024-03-06T12:56:18;16.40;;;11.73;;
84923;SDS011;75286;52.218;5.180;2024-03-06T12:58:44;17.83;;;10.52;;
84923;SDS011;75286;52.218;5.180;2024-03-06T13:01:09;15.20;;;10.15;;
84923;SDS011;75286;52.218;5.180;2024-03-06T13:03:35;16.35;;;10.50;;
84923;SDS011;75286;52.218;5.180;2024-03-06T13:06:02;13.55;;;9.02;;
84923;SDS011;75286;52.218;5.180;2024-03-06T13:08:29;14.63;;;9.55;;
84923;SDS011;75286;52.218;5.180;2024-03-06T13:10:55;13.90;;;9.13;;
84923;SDS011;75286;52.218;5.180;2024-03-06T13:13:21;15.43;;;8.50;;
84923;SDS011;75286;52.218;5.180;2024-03-06T13:15:49;12.18;;;7.65;;
84923;SDS011;75286;52.218;5.180;2024-03-06T13:18:15;13.05;;;8.05;;
84923;SDS011;75286;52.218;5.180;2024-03-06T13:20:42;16.13;;;9.30;;
84923;SDS011;75286;52.218;5.180;2024-03-06T13:23:09;14.85;;;8.68;;
84923;SDS011;75286;52.218;5.180;2024-03-06T13:25:35;14.52;;;9.30;;
84923;SDS011;75286;52.218;5.180;2024-03-06T13:28:11;11.93;;;7.47;;
84923;SDS011;75286;52.218;5.180;2024-03-06T13:30:40;12.75;;;8.00;;
84923;SDS011;75286;52.218;5.180;2024-03-06T13:33:07;14.43;;;8.70;;
84923;SDS011;75286;52.218;5.180;2024-03-06T13:35:32;14.20;;;9.07;;
84923;SDS011;75286;52.218;5.180;2024-03-06T13:38:00;13.18;;;8.02;;
84923;SDS011;75286;52.218;5.180;2024-03-06T13:40:28;14.65;;;7.75;;
84923;SDS011;75286;52.218;5.180;2024-03-06T13:42:55;15.45;;;8.43;;
84923;SDS011;75286;52.218;5.180;2024-03-06T13:45:21;14.88;;;8.40;;
84923;SDS011;75286;52.218;5.180;2024-03-06T13:47:46;11.35;;;8.05;;
84923;SDS011;75286;52.218;5.180;2024-03-06T13:50:15;12.15;;;7.95;;
84923;SDS011;75286;52.218;5.180;2024-03-06T13:55:37;12.30;;;7.50;;
84923;SDS011;75286;52.218;5.180;2024-03-06T13:58:11;12.60;;;7.32;;
84923;SDS011;75286;52.218;5.180;2024-03-06T14:00:50;13.27;;;7.90;;
84923;SDS011;75286;52.218;5.180;2024-03-06T14:03:19;13.45;;;7.13;;
84923;SDS011;75286;52.218;5.180;2024-03-06T14:05:45;13.60;;;6.90;;
84923;SDS011;75286;52.218;5.180;2024-03-06T14:08:13;12.68;;;7.10;;
84923;SDS011;75286;52.218;5.180;2024-03-06T14:10:41;13.07;;;7.15;;
84923;SDS011;75286;52.218;5.180;2024-03-06T14:13:09;10.20;;;6.80;;
84923;SDS011;75286;52.218;5.180;2024-03-06T14:15:36;14.80;;;7.15;;
84923;SDS011;75286;52.218;5.180;2024-03-06T14:18:02;11.50;;;6.30;;
84923;SDS011;75286;52.218;5.180;2024-03-06T14:20:32;11.23;;;6.70;;
84923;SDS011;75286;52.218;5.180;2024-03-06T14:22:58;12.40;;;6.85;;
84923;SDS011;75286;52.218;5.180;2024-03-06T14:25:23;11.02;;;5.57;;
84923;SDS011;75286;52.218;5.180;2024-03-06T14:27:50;10.68;;;6.63;;
84923;SDS011;75286;52.218;5.180;2024-03-06T14:30:16;12.15;;;5.88;;
84923;SDS011;75286;52.218;5.180;2024-03-06T14:32:43;10.57;;;6.15;;
84923;SDS011;75286;52.218;5.180;2024-03-06T14:35:10;11.00;;;6.30;;
84923;SDS011;75286;52.218;5.180;2024-03-06T14:37:35;10.70;;;6.07;;
84923;SDS011;75286;52.218;5.180;2024-03-06T14:40:05;12.23;;;7.00;;